createdAt,value
2018-06-25T00:00:12.745Z,95.40
2018-06-25T00:02:39.674Z,95.60
2018-06-25T00:05:06.632Z,95.50
2018-06-25T00:07:33.579Z,95.70
2018-06-25T00:10:00.531Z,95.70
2018-06-25T00:12:27.501Z,95.70
2018-06-25T00:14:54.462Z,95.80
2018-06-25T00:17:21.361Z,95.90
2018-06-25T00:19:48.328Z,96.10
2018-06-25T00:22:15.224Z,96.20
2018-06-25T00:27:09.026Z,96.30
2018-06-25T00:29:35.945Z,96.30
2018-06-25T00:32:02.949Z,96.30
2018-06-25T00:34:29.909Z,96.20
2018-06-25T00:36:56.862Z,96.40
2018-06-25T00:39:23.793Z,96.50
2018-06-25T00:41:50.739Z,96.40
2018-06-25T00:44:17.655Z,96.60
2018-06-25T00:46:44.603Z,96.70
2018-06-25T00:49:11.513Z,96.60
2018-06-25T00:51:38.487Z,96.60
2018-06-25T00:54:05.433Z,96.70
2018-06-25T00:56:32.340Z,97.00
2018-06-25T00:59:04.789Z,97.10
2018-06-25T01:01:32.512Z,97.20
2018-06-25T01:03:59.452Z,97.40
2018-06-25T01:06:26.394Z,97.50
2018-06-25T01:08:53.347Z,97.50
2018-06-25T01:11:20.268Z,97.50
2018-06-25T01:13:47.227Z,97.60
2018-06-25T01:16:14.146Z,97.50
2018-06-25T01:18:41.094Z,97.30
2018-06-25T01:21:08.040Z,97.20
2018-06-25T01:26:01.830Z,97.20
2018-06-25T01:28:28.744Z,97.40
2018-06-25T01:30:55.676Z,97.30
2018-06-25T01:33:22.608Z,97.10
2018-06-25T01:35:49.534Z,97.30
2018-06-25T01:38:16.474Z,97.50
2018-06-25T01:40:43.413Z,97.50
2018-06-25T01:43:10.324Z,97.40
2018-06-25T01:45:37.272Z,97.30
2018-06-25T01:48:04.396Z,96.90
2018-06-25T01:50:31.332Z,97.00
2018-06-25T01:52:58.263Z,97.00
2018-06-25T01:55:25.192Z,97.20
2018-06-25T01:57:52.134Z,97.40
2018-06-25T02:00:19.079Z,97.60
2018-06-25T02:02:46.052Z,97.70
2018-06-25T02:05:12.984Z,97.60
2018-06-25T02:07:39.946Z,97.70
2018-06-25T02:10:07.018Z,97.60
2018-06-25T02:15:00.848Z,97.60
2018-06-25T02:17:27.820Z,97.60
2018-06-25T02:19:54.733Z,97.70
2018-06-25T02:22:21.698Z,97.60
2018-06-25T02:24:48.639Z,97.70
2018-06-25T02:27:15.584Z,97.70
2018-06-25T02:29:42.606Z,97.70
2018-06-25T02:32:09.550Z,97.80
2018-06-25T02:34:36.985Z,97.80
2018-06-25T02:37:04.536Z,97.80
2018-06-25T02:39:31.518Z,97.60
2018-06-25T02:41:58.524Z,97.60
2018-06-25T02:44:25.434Z,97.60
2018-06-25T02:46:52.376Z,97.60
2018-06-25T02:49:19.305Z,97.50
2018-06-25T02:51:46.227Z,97.50
2018-06-25T02:54:13.182Z,97.40
2018-06-25T02:56:40.086Z,97.50
2018-06-25T02:59:07.135Z,97.60
2018-06-25T03:01:33.984Z,97.60
2018-06-25T03:04:00.945Z,97.50
2018-06-25T03:06:27.865Z,97.50
2018-06-25T03:08:55.324Z,97.40
2018-06-25T03:11:22.227Z,97.60
2018-06-25T03:13:49.181Z,97.70
2018-06-25T03:16:16.095Z,98.20
2018-06-25T03:18:43.147Z,97.80
2018-06-25T03:21:10.046Z,97.70
2018-06-25T03:23:37.039Z,97.70
2018-06-25T03:26:03.996Z,97.50
2018-06-25T03:28:30.932Z,97.30
2018-06-25T03:30:57.895Z,97.10
2018-06-25T03:33:24.854Z,97.00
2018-06-25T03:35:51.809Z,97.20
2018-06-25T03:38:18.813Z,97.20
2018-06-25T03:40:45.924Z,97.20
2018-06-25T03:43:12.895Z,97.40
2018-06-25T03:45:39.832Z,97.40
2018-06-25T03:50:40.648Z,97.30
2018-06-25T03:53:07.596Z,97.20
2018-06-25T03:55:34.582Z,97.40
2018-06-25T03:58:01.517Z,97.40
2018-06-25T04:00:28.483Z,97.60
2018-06-25T04:02:55.448Z,97.70
2018-06-25T04:05:22.443Z,97.70
2018-06-25T04:07:49.399Z,97.70
2018-06-25T04:10:16.364Z,97.80
2018-06-25T04:12:43.276Z,97.80
2018-06-25T04:15:10.264Z,97.90
2018-06-25T04:17:37.198Z,97.80
2018-06-25T04:20:04.172Z,97.60
2018-06-25T04:22:31.223Z,97.60
2018-06-25T04:24:58.166Z,97.60
2018-06-25T04:27:25.077Z,98.00
2018-06-25T04:29:52.027Z,97.40
2018-06-25T04:32:18.944Z,97.40
2018-06-25T04:34:45.871Z,97.30
2018-06-25T04:37:12.839Z,97.40
2018-06-25T04:39:39.778Z,97.40
2018-06-25T04:42:06.723Z,97.50
2018-06-25T04:44:33.664Z,97.40
2018-06-25T04:47:00.582Z,97.60
2018-06-25T04:49:27.556Z,97.40
2018-06-25T04:51:54.525Z,97.30
2018-06-25T04:54:21.423Z,97.30
2018-06-25T04:56:48.415Z,97.70
2018-06-25T04:59:15.312Z,97.30
2018-06-25T05:01:42.296Z,97.50
2018-06-25T05:04:09.249Z,97.50
2018-06-25T05:06:36.195Z,97.60
2018-06-25T05:09:05.192Z,97.60
2018-06-25T05:11:32.165Z,97.70
2018-06-25T05:13:59.071Z,97.70
2018-06-25T05:16:26.034Z,97.70
2018-06-25T05:18:52.968Z,97.60
2018-06-25T05:21:19.905Z,97.70
2018-06-25T05:23:46.877Z,97.70
2018-06-25T05:26:13.795Z,97.80
2018-06-25T05:28:40.740Z,97.80
2018-06-25T05:31:07.664Z,97.60
2018-06-25T05:33:34.626Z,97.50
2018-06-25T05:36:01.556Z,97.60
2018-06-25T05:38:28.586Z,97.60
2018-06-25T05:40:55.562Z,97.60
2018-06-25T05:43:22.500Z,97.50
2018-06-25T05:45:49.460Z,97.60
2018-06-25T05:48:16.472Z,97.90
2018-06-25T05:50:43.413Z,97.80
2018-06-25T05:53:10.402Z,98.00
2018-06-25T05:55:37.413Z,98.00
2018-06-25T05:58:04.402Z,97.90
2018-06-25T06:00:31.352Z,97.80
2018-06-25T06:02:58.281Z,97.80
2018-06-25T06:05:25.237Z,97.90
2018-06-25T06:07:52.162Z,97.90
2018-06-25T06:10:19.128Z,97.60
2018-06-25T06:12:46.024Z,97.50
2018-06-25T06:15:13.013Z,97.60
2018-06-25T06:17:39.954Z,97.70
2018-06-25T06:20:06.954Z,97.50
2018-06-25T06:22:33.898Z,97.60
2018-06-25T06:25:00.839Z,97.60
2018-06-25T06:27:27.746Z,97.00
2018-06-25T06:29:54.695Z,96.70
2018-06-25T06:34:48.612Z,96.80
2018-06-25T06:37:15.496Z,96.80
2018-06-25T06:39:42.436Z,96.80
2018-06-25T06:42:09.347Z,96.90
2018-06-25T06:44:36.316Z,96.80
2018-06-25T06:47:03.242Z,97.20
2018-06-25T06:49:30.188Z,96.90
2018-06-25T06:51:57.401Z,96.70
2018-06-25T06:54:24.524Z,96.20
2018-06-25T06:56:51.448Z,95.90
2018-06-25T06:59:18.398Z,95.70
2018-06-25T07:01:45.323Z,95.90
2018-06-25T07:04:12.241Z,95.70
2018-06-25T07:09:13.503Z,96.00
2018-06-25T07:11:40.876Z,96.00
2018-06-25T07:14:08.411Z,96.00
2018-06-25T07:16:35.462Z,95.60
2018-06-25T07:21:29.204Z,94.70
2018-06-25T07:23:56.136Z,94.80
2018-06-25T07:26:24.484Z,95.10
2018-06-25T07:28:51.818Z,95.50
2018-06-25T07:31:18.770Z,95.60
2018-06-25T07:33:46.005Z,95.60
2018-06-25T07:36:12.982Z,96.00
2018-06-25T07:38:39.897Z,95.90
2018-06-25T07:41:06.839Z,95.70
2018-06-25T07:43:33.765Z,95.90
2018-06-25T07:46:00.733Z,95.60
2018-06-25T07:50:54.531Z,95.30
2018-06-25T07:53:21.546Z,95.30
2018-06-25T07:55:48.416Z,95.30
2018-06-25T07:58:15.320Z,95.00
2018-06-25T08:00:42.270Z,95.00
2018-06-25T08:03:09.220Z,94.90
2018-06-25T08:05:36.284Z,95.20
2018-06-25T08:15:23.734Z,94.00
2018-06-25T08:17:50.700Z,93.90
2018-06-25T08:20:17.635Z,94.20
2018-06-25T08:22:44.829Z,93.20
2018-06-25T08:25:11.874Z,90.70
2018-06-25T08:27:38.819Z,90.00
2018-06-25T08:30:05.735Z,90.10
2018-06-25T08:32:32.703Z,85.90
2018-06-25T08:34:59.599Z,83.80
2018-06-25T08:37:26.682Z,84.80
2018-06-25T08:39:53.653Z,83.60
2018-06-25T08:42:20.633Z,80.10
2018-06-25T08:44:47.523Z,81.00
2018-06-25T08:47:14.711Z,81.20
2018-06-25T08:49:41.587Z,81.90
2018-06-25T08:52:08.567Z,81.00
2018-06-25T08:54:35.512Z,80.20
2018-06-25T08:57:02.562Z,81.50
2018-06-25T08:59:29.491Z,81.80
2018-06-25T09:01:56.459Z,79.60
2018-06-25T09:04:23.427Z,79.90
2018-06-25T09:06:50.364Z,78.90
2018-06-25T09:09:17.267Z,78.50
2018-06-25T09:11:44.191Z,80.20
2018-06-25T09:14:11.112Z,75.70
2018-06-25T09:16:38.036Z,78.00
2018-06-25T09:19:05.252Z,79.00
2018-06-25T09:21:32.180Z,80.30
2018-06-25T09:23:59.154Z,80.60
2018-06-25T09:26:26.102Z,81.30
2018-06-25T09:28:53.041Z,82.80
2018-06-25T09:31:19.984Z,82.70
2018-06-25T09:33:46.908Z,86.30
2018-06-25T09:38:40.921Z,81.40
2018-06-25T09:41:07.851Z,79.80
2018-06-25T09:43:34.805Z,77.80
2018-06-25T09:46:01.840Z,78.40
2018-06-25T09:48:28.768Z,79.10
2018-06-25T09:50:55.953Z,79.50
2018-06-25T09:53:22.865Z,82.70
2018-06-25T09:55:49.820Z,81.80
2018-06-25T09:58:16.715Z,83.60
2018-06-25T10:00:49.379Z,82.60
2018-06-25T10:03:16.283Z,80.40
2018-06-25T10:05:43.268Z,81.40
2018-06-25T10:08:10.173Z,80.70
2018-06-25T10:10:37.173Z,79.80
2018-06-25T10:13:04.057Z,79.80
2018-06-25T10:15:31.063Z,78.20
2018-06-25T10:17:57.973Z,77.60
2018-06-25T10:20:24.916Z,78.10
2018-06-25T10:22:51.812Z,77.50
2018-06-25T10:25:18.836Z,76.80
2018-06-25T10:27:45.772Z,77.00
2018-06-25T10:30:12.693Z,77.50
2018-06-25T10:32:39.659Z,77.60
2018-06-25T10:35:06.608Z,76.10
2018-06-25T10:37:33.540Z,76.70
2018-06-25T10:40:00.500Z,72.20
2018-06-25T10:42:27.501Z,72.10
2018-06-25T10:44:54.392Z,72.60
2018-06-25T10:47:21.347Z,68.70
2018-06-25T10:49:48.325Z,66.90
2018-06-25T10:52:15.301Z,66.50
2018-06-25T10:54:42.230Z,64.60
2018-06-25T10:57:09.198Z,63.20
2018-06-25T10:59:36.245Z,65.50
2018-06-25T11:02:03.171Z,66.00
2018-06-25T11:04:30.060Z,67.20
2018-06-25T11:06:57.046Z,68.40
2018-06-25T11:09:23.948Z,65.60
2018-06-25T11:11:50.887Z,67.00
2018-06-25T11:14:17.913Z,66.90
2018-06-25T11:16:44.872Z,67.60
2018-06-25T11:19:11.837Z,67.20
2018-06-25T11:21:38.905Z,65.50
2018-06-25T11:24:05.823Z,63.90
2018-06-25T11:26:32.937Z,59.40
2018-06-25T11:28:59.872Z,57.00
2018-06-25T11:31:26.840Z,55.70
2018-06-25T11:33:53.761Z,56.80
2018-06-25T11:36:20.785Z,56.60
2018-06-25T11:38:47.709Z,57.20
2018-06-25T11:41:14.684Z,58.90
2018-06-25T11:43:41.849Z,59.00
2018-06-25T11:46:08.797Z,61.00
2018-06-25T11:48:35.703Z,59.30
2018-06-25T11:51:02.650Z,58.90
2018-06-25T11:53:29.621Z,59.80
2018-06-25T11:55:56.822Z,59.90
2018-06-25T11:58:23.817Z,60.80
2018-06-25T12:00:50.708Z,62.00
2018-06-25T12:03:17.951Z,59.00
2018-06-25T12:05:44.596Z,54.30
2018-06-25T12:08:12.340Z,52.50
2018-06-25T12:10:39.319Z,48.50
2018-06-25T12:13:06.320Z,48.10
2018-06-25T12:15:33.244Z,49.00
2018-06-25T12:18:00.160Z,50.30
2018-06-25T12:20:27.096Z,50.00
2018-06-25T12:22:54.033Z,50.70
2018-06-25T12:25:20.948Z,50.10
2018-06-25T12:27:47.989Z,49.40
2018-06-25T12:30:14.998Z,48.50
2018-06-25T12:32:41.956Z,47.60
2018-06-25T12:35:09.094Z,48.30
2018-06-25T12:37:36.015Z,44.10
2018-06-25T12:40:03.073Z,43.80
2018-06-25T12:42:30.026Z,41.40
2018-06-25T12:44:56.959Z,41.80
2018-06-25T12:47:23.877Z,40.40
2018-06-25T12:49:50.800Z,38.90
2018-06-25T12:52:17.777Z,40.20
2018-06-25T12:54:44.736Z,41.90
2018-06-25T12:57:11.763Z,43.20
2018-06-25T13:02:05.516Z,44.10
2018-06-25T13:04:32.437Z,46.00
2018-06-25T13:06:59.814Z,48.00
2018-06-25T13:09:26.708Z,47.80
2018-06-25T13:11:53.700Z,47.10
2018-06-25T13:14:20.597Z,46.30
2018-06-25T13:16:47.547Z,43.60
